sensor_id;sensor_type;location;lat;lon;timestamp;P1;durP1;ratioP1;P2;durP2;ratioP2
71083;SDS011;58741;52.672;13.548;2024-03-02T00:00:12;15.10;;;8.00;;
71083;SDS011;58741;52.672;13.548;2024-03-02T00:02:42;15.18;;;7.13;;
71083;SDS011;58741;52.672;13.548;2024-03-02T00:05:14;14.80;;;7.90;;
71083;SDS011;58741;52.672;13.548;2024-03-02T00:07:44;15.15;;;7.65;;
71083;SDS011;58741;52.672;13.548;2024-03-02T00:10:14;15.98;;;7.97;;
71083;SDS011;58741;52.672;13.548;2024-03-02T00:12:46;11.43;;;7.43;;
71083;SDS011;58741;52.672;13.548;2024-03-02T00:15:36;15.82;;;6.78;;
71083;SDS011;58741;52.672;13.548;2024-03-02T00:18:18;15.38;;;7.50;;
71083;SDS011;58741;52.672;13.548;2024-03-02T00:20:53;12.73;;;7.20;;
71083;SDS011;58741;52.672;13.548;2024-03-02T00:23:22;14.15;;;7.55;;
71083;SDS011;58741;52.672;13.548;2024-03-02T00:25:50;13.77;;;6.43;;
71083;SDS011;58741;52.672;13.548;2024-03-02T00:28:22;12.90;;;6.90;;
71083;SDS011;58741;52.672;13.548;2024-03-02T00:30:55;13.80;;;7.78;;
71083;SDS011;58741;52.672;13.548;2024-03-02T00:33:32;11.40;;;6.93;;
71083;SDS011;58741;52.672;13.548;2024-03-02T00:36:00;12.77;;;6.95;;
71083;SDS011;58741;52.672;13.548;2024-03-02T00:38:31;13.48;;;7.15;;
71083;SDS011;58741;52.672;13.548;2024-03-02T00:40:58;14.13;;;7.10;;
71083;SDS011;58741;52.672;13.548;2024-03-02T00:43:38;12.13;;;6.53;;
71083;SDS011;58741;52.672;13.548;2024-03-02T00:46:12;14.13;;;6.87;;
71083;SDS011;58741;52.672;13.548;2024-03-02T00:51:24;17.60;;;6.40;;
71083;SDS011;58741;52.672;13.548;2024-03-02T00:53:53;13.27;;;7.22;;
71083;SDS011;58741;52.672;13.548;2024-03-02T00:56:23;11.57;;;5.97;;
71083;SDS011;58741;52.672;13.548;2024-03-02T00:58:51;11.88;;;6.13;;
71083;SDS011;58741;52.672;13.548;2024-03-02T01:01:19;12.18;;;6.93;;
71083;SDS011;58741;52.672;13.548;2024-03-02T01:03:46;13.80;;;6.82;;
71083;SDS011;58741;52.672;13.548;2024-03-02T01:06:14;9.65;;;5.93;;
71083;SDS011;58741;52.672;13.548;2024-03-02T01:08:41;12.65;;;6.63;;
71083;SDS011;58741;52.672;13.548;2024-03-02T01:11:08;10.23;;;6.28;;
71083;SDS011;58741;52.672;13.548;2024-03-02T01:13:35;11.48;;;6.05;;
71083;SDS011;58741;52.672;13.548;2024-03-02T01:16:02;11.50;;;5.95;;
71083;SDS011;58741;52.672;13.548;2024-03-02T01:18:30;10.48;;;5.30;;
71083;SDS011;58741;52.672;13.548;2024-03-02T01:20:57;12.75;;;6.60;;
71083;SDS011;58741;52.672;13.548;2024-03-02T01:23:24;12.57;;;6.70;;
71083;SDS011;58741;52.672;13.548;2024-03-02T01:25:51;15.20;;;6.93;;
71083;SDS011;58741;52.672;13.548;2024-03-02T01:28:18;12.15;;;6.57;;
71083;SDS011;58741;52.672;13.548;2024-03-02T01:30:47;10.80;;;6.35;;
71083;SDS011;58741;52.672;13.548;2024-03-02T01:33:16;15.43;;;7.30;;
71083;SDS011;58741;52.672;13.548;2024-03-02T01:35:44;14.98;;;7.10;;
71083;SDS011;58741;52.672;13.548;2024-03-02T01:38:10;15.05;;;7.75;;
71083;SDS011;58741;52.672;13.548;2024-03-02T01:40:37;16.15;;;7.15;;
71083;SDS011;58741;52.672;13.548;2024-03-02T01:43:05;12.05;;;6.45;;
71083;SDS011;58741;52.672;13.548;2024-03-02T01:45:32;15.45;;;7.40;;
71083;SDS011;58741;52.672;13.548;2024-03-02T01:48:00;15.13;;;7.38;;
71083;SDS011;58741;52.672;13.548;2024-03-02T01:50:28;16.83;;;8.20;;
71083;SDS011;58741;52.672;13.548;2024-03-02T01:52:56;15.60;;;8.18;;
71083;SDS011;58741;52.672;13.548;2024-03-02T01:55:23;15.70;;;8.15;;
71083;SDS011;58741;52.672;13.548;2024-03-02T01:57:50;16.90;;;8.20;;
71083;SDS011;58741;52.672;13.548;2024-03-02T02:00:19;16.58;;;8.73;;
71083;SDS011;58741;52.672;13.548;2024-03-02T02:02:47;17.25;;;8.02;;
71083;SDS011;58741;52.672;13.548;2024-03-02T02:05:14;15.60;;;7.93;;
71083;SDS011;58741;52.672;13.548;2024-03-02T02:07:41;16.08;;;7.45;;
71083;SDS011;58741;52.672;13.548;2024-03-02T02:10:09;15.40;;;7.80;;
71083;SDS011;58741;52.672;13.548;2024-03-02T02:12:37;18.60;;;8.30;;
71083;SDS011;58741;52.672;13.548;2024-03-02T02:15:07;13.65;;;6.85;;
71083;SDS011;58741;52.672;13.548;2024-03-02T02:17:55;14.45;;;7.18;;
71083;SDS011;58741;52.672;13.548;2024-03-02T02:20:23;18.08;;;8.40;;
71083;SDS011;58741;52.672;13.548;2024-03-02T02:23:00;18.83;;;8.00;;
71083;SDS011;58741;52.672;13.548;2024-03-02T02:25:28;15.82;;;8.30;;
71083;SDS011;58741;52.672;13.548;2024-03-02T02:27:56;17.48;;;8.18;;
71083;SDS011;58741;52.672;13.548;2024-03-02T02:30:25;17.08;;;7.75;;
71083;SDS011;58741;52.672;13.548;2024-03-02T02:32:54;12.65;;;7.20;;
71083;SDS011;58741;52.672;13.548;2024-03-02T02:35:21;14.10;;;7.30;;
71083;SDS011;58741;52.672;13.548;2024-03-02T02:37:48;16.10;;;7.35;;
71083;SDS011;58741;52.672;13.548;2024-03-02T02:40:16;17.08;;;8.30;;
71083;SDS011;58741;52.672;13.548;2024-03-02T02:42:45;13.15;;;7.32;;
71083;SDS011;58741;52.672;13.548;2024-03-02T02:45:12;15.20;;;8.38;;
71083;SDS011;58741;52.672;13.548;2024-03-02T02:47:41;15.00;;;8.00;;
71083;SDS011;58741;52.672;13.548;2024-03-02T02:50:08;18.55;;;9.02;;
71083;SDS011;58741;52.672;13.548;2024-03-02T02:52:37;23.08;;;9.20;;
71083;SDS011;58741;52.672;13.548;2024-03-02T02:55:09;16.42;;;8.75;;
71083;SDS011;58741;52.672;13.548;2024-03-02T02:57:38;17.00;;;8.75;;
71083;SDS011;58741;52.672;13.548;2024-03-02T03:05:10;23.05;;;11.02;;
71083;SDS011;58741;52.672;13.548;2024-03-02T03:07:41;22.17;;;10.88;;
71083;SDS011;58741;52.672;13.548;2024-03-02T03:10:08;19.67;;;11.20;;
71083;SDS011;58741;52.672;13.548;2024-03-02T03:12:35;23.67;;;12.77;;
71083;SDS011;58741;52.672;13.548;2024-03-02T03:15:03;23.73;;;12.57;;
71083;SDS011;58741;52.672;13.548;2024-03-02T03:17:34;29.50;;;11.90;;
71083;SDS011;58741;52.672;13.548;2024-03-02T03:20:02;24.00;;;12.10;;
71083;SDS011;58741;52.672;13.548;2024-03-02T03:22:30;21.50;;;11.05;;
71083;SDS011;58741;52.672;13.548;2024-03-02T03:24:58;26.75;;;12.32;;
71083;SDS011;58741;52.672;13.548;2024-03-02T03:27:24;20.38;;;11.38;;
71083;SDS011;58741;52.672;13.548;2024-03-02T03:29:52;20.80;;;11.00;;
71083;SDS011;58741;52.672;13.548;2024-03-02T03:32:20;21.10;;;10.27;;
71083;SDS011;58741;52.672;13.548;2024-03-02T03:34:47;18.95;;;10.05;;
71083;SDS011;58741;52.672;13.548;2024-03-02T03:37:14;18.38;;;9.18;;
71083;SDS011;58741;52.672;13.548;2024-03-02T03:39:41;25.85;;;10.95;;
71083;SDS011;58741;52.672;13.548;2024-03-02T03:42:08;25.92;;;11.75;;
71083;SDS011;58741;52.672;13.548;2024-03-02T03:44:35;18.67;;;10.20;;
71083;SDS011;58741;52.672;13.548;2024-03-02T03:47:02;18.25;;;10.30;;
71083;SDS011;58741;52.672;13.548;2024-03-02T03:49:29;20.67;;;10.15;;
71083;SDS011;58741;52.672;13.548;2024-03-02T03:51:55;20.58;;;10.07;;
71083;SDS011;58741;52.672;13.548;2024-03-02T03:54:22;15.70;;;8.82;;
71083;SDS011;58741;52.672;13.548;2024-03-02T03:56:49;16.92;;;9.45;;
71083;SDS011;58741;52.672;13.548;2024-03-02T03:59:16;22.10;;;10.20;;
71083;SDS011;58741;52.672;13.548;2024-03-02T04:01:43;18.65;;;9.40;;
71083;SDS011;58741;52.672;13.548;2024-03-02T04:04:09;16.38;;;10.10;;
71083;SDS011;58741;52.672;13.548;2024-03-02T04:06:36;17.52;;;9.48;;
71083;SDS011;58741;52.672;13.548;2024-03-02T04:09:03;20.73;;;9.88;;
71083;SDS011;58741;52.672;13.548;2024-03-02T04:11:30;16.42;;;9.15;;
71083;SDS011;58741;52.672;13.548;2024-03-02T04:13:57;16.13;;;8.85;;
71083;SDS011;58741;52.672;13.548;2024-03-02T04:16:24;21.30;;;10.85;;
71083;SDS011;58741;52.672;13.548;2024-03-02T04:18:51;18.88;;;10.50;;
71083;SDS011;58741;52.672;13.548;2024-03-02T04:21:18;17.42;;;10.18;;
71083;SDS011;58741;52.672;13.548;2024-03-02T04:23:45;19.33;;;10.80;;
71083;SDS011;58741;52.672;13.548;2024-03-02T04:26:11;19.02;;;10.30;;
71083;SDS011;58741;52.672;13.548;2024-03-02T04:28:38;20.60;;;9.40;;
71083;SDS011;58741;52.672;13.548;2024-03-02T04:31:05;20.45;;;10.50;;
71083;SDS011;58741;52.672;13.548;2024-03-02T04:33:32;16.52;;;9.32;;
71083;SDS011;58741;52.672;13.548;2024-03-02T04:35:59;18.00;;;9.23;;
71083;SDS011;58741;52.672;13.548;2024-03-02T04:38:25;14.32;;;8.20;;
71083;SDS011;58741;52.672;13.548;2024-03-02T04:40:52;16.50;;;8.43;;
71083;SDS011;58741;52.672;13.548;2024-03-02T04:43:19;17.88;;;8.85;;
71083;SDS011;58741;52.672;13.548;2024-03-02T04:45:46;16.25;;;7.50;;
71083;SDS011;58741;52.672;13.548;2024-03-02T04:48:13;14.40;;;6.88;;
71083;SDS011;58741;52.672;13.548;2024-03-02T04:50:40;15.07;;;8.38;;
71083;SDS011;58741;52.672;13.548;2024-03-02T04:53:07;14.27;;;7.72;;
71083;SDS011;58741;52.672;13.548;2024-03-02T04:55:34;15.10;;;7.53;;
71083;SDS011;58741;52.672;13.548;2024-03-02T04:58:01;12.93;;;6.80;;
71083;SDS011;58741;52.672;13.548;2024-03-02T05:00:28;14.55;;;7.60;;
71083;SDS011;58741;52.672;13.548;2024-03-02T05:02:55;15.38;;;8.07;;
71083;SDS011;58741;52.672;13.548;2024-03-02T05:05:21;15.00;;;7.82;;
71083;SDS011;58741;52.672;13.548;2024-03-02T05:07:49;16.23;;;7.93;;
71083;SDS011;58741;52.672;13.548;2024-03-02T05:10:15;15.68;;;8.65;;
71083;SDS011;58741;52.672;13.548;2024-03-02T05:12:42;18.13;;;8.52;;
71083;SDS011;58741;52.672;13.548;2024-03-02T05:15:10;12.75;;;7.28;;
71083;SDS011;58741;52.672;13.548;2024-03-02T05:17:37;12.70;;;7.25;;
71083;SDS011;58741;52.672;13.548;2024-03-02T05:20:05;13.32;;;7.22;;
71083;SDS011;58741;52.672;13.548;2024-03-02T05:22:34;15.40;;;8.75;;
71083;SDS011;58741;52.672;13.548;2024-03-02T05:25:01;17.27;;;8.75;;
71083;SDS011;58741;52.672;13.548;2024-03-02T05:27:30;15.60;;;8.95;;
71083;SDS011;58741;52.672;13.548;2024-03-02T05:29:59;15.45;;;7.35;;
71083;SDS011;58741;52.672;13.548;2024-03-02T05:32:26;16.05;;;8.40;;
71083;SDS011;58741;52.672;13.548;2024-03-02T05:34:53;13.25;;;7.60;;
71083;SDS011;58741;52.672;13.548;2024-03-02T05:37:20;13.80;;;7.05;;
71083;SDS011;58741;52.672;13.548;2024-03-02T05:39:46;14.00;;;7.43;;
71083;SDS011;58741;52.672;13.548;2024-03-02T05:42:13;15.05;;;8.15;;
71083;SDS011;58741;52.672;13.548;2024-03-02T05:44:41;15.02;;;8.68;;
71083;SDS011;58741;52.672;13.548;2024-03-02T05:47:07;27.55;;;12.80;;
71083;SDS011;58741;52.672;13.548;2024-03-02T05:49:35;19.83;;;11.25;;
71083;SDS011;58741;52.672;13.548;2024-03-02T05:52:02;26.58;;;12.20;;
71083;SDS011;58741;52.672;13.548;2024-03-02T05:54:29;23.55;;;12.52;;
71083;SDS011;58741;52.672;13.548;2024-03-02T05:56:56;18.92;;;10.85;;
71083;SDS011;58741;52.672;13.548;2024-03-02T05:59:23;19.05;;;10.48;;
71083;SDS011;58741;52.672;13.548;2024-03-02T06:01:50;18.50;;;10.40;;
71083;SDS011;58741;52.672;13.548;2024-03-02T06:04:17;20.77;;;11.23;;
71083;SDS011;58741;52.672;13.548;2024-03-02T06:06:44;23.77;;;12.50;;
71083;SDS011;58741;52.672;13.548;2024-03-02T06:09:11;22.98;;;12.32;;
71083;SDS011;58741;52.672;13.548;2024-03-02T06:11:40;18.88;;;11.55;;
71083;SDS011;58741;52.672;13.548;2024-03-02T06:14:07;18.70;;;10.88;;
71083;SDS011;58741;52.672;13.548;2024-03-02T06:16:35;19.23;;;9.60;;
71083;SDS011;58741;52.672;13.548;2024-03-02T06:19:02;22.00;;;9.75;;
71083;SDS011;58741;52.672;13.548;2024-03-02T06:21:29;19.63;;;10.05;;
71083;SDS011;58741;52.672;13.548;2024-03-02T06:23:56;16.30;;;8.80;;
71083;SDS011;58741;52.672;13.548;2024-03-02T06:26:23;13.93;;;7.57;;
71083;SDS011;58741;52.672;13.548;2024-03-02T06:28:51;14.07;;;7.75;;
71083;SDS011;58741;52.672;13.548;2024-03-02T06:31:18;13.73;;;7.68;;
71083;SDS011;58741;52.672;13.548;2024-03-02T06:33:45;15.10;;;7.53;;
71083;SDS011;58741;52.672;13.548;2024-03-02T06:36:12;13.80;;;7.30;;
71083;SDS011;58741;52.672;13.548;2024-03-02T06:38:41;17.13;;;9.18;;
71083;SDS011;58741;52.672;13.548;2024-03-02T06:41:09;13.35;;;8.20;;
71083;SDS011;58741;52.672;13.548;2024-03-02T06:43:36;15.95;;;9.35;;
71083;SDS011;58741;52.672;13.548;2024-03-02T06:46:04;18.25;;;9.55;;
71083;SDS011;58741;52.672;13.548;2024-03-02T06:48:32;14.80;;;7.65;;
71083;SDS011;58741;52.672;13.548;2024-03-02T06:50:59;12.68;;;7.53;;
71083;SDS011;58741;52.672;13.548;2024-03-02T06:53:26;17.38;;;7.68;;
71083;SDS011;58741;52.672;13.548;2024-03-02T06:55:53;16.63;;;7.82;;
71083;SDS011;58741;52.672;13.548;2024-03-02T06:58:20;14.43;;;8.27;;
71083;SDS011;58741;52.672;13.548;2024-03-02T07:00:47;16.98;;;8.23;;
71083;SDS011;58741;52.672;13.548;2024-03-02T07:03:14;12.82;;;7.30;;
71083;SDS011;58741;52.672;13.548;2024-03-02T07:05:41;14.20;;;6.95;;
71083;SDS011;58741;52.672;13.548;2024-03-02T07:08:08;12.43;;;7.55;;
71083;SDS011;58741;52.672;13.548;2024-03-02T07:10:35;12.40;;;6.82;;
71083;SDS011;58741;52.672;13.548;2024-03-02T07:13:02;14.38;;;8.13;;
71083;SDS011;58741;52.672;13.548;2024-03-02T07:15:29;16.92;;;7.80;;
71083;SDS011;58741;52.672;13.548;2024-03-02T07:18:14;18.20;;;8.35;;
71083;SDS011;58741;52.672;13.548;2024-03-02T07:20:41;17.15;;;8.02;;
71083;SDS011;58741;52.672;13.548;2024-03-02T07:23:08;20.42;;;9.45;;
71083;SDS011;58741;52.672;13.548;2024-03-02T07:25:35;12.45;;;7.70;;
71083;SDS011;58741;52.672;13.548;2024-03-02T07:28:05;14.00;;;7.90;;
71083;SDS011;58741;52.672;13.548;2024-03-02T07:30:33;15.80;;;9.07;;
71083;SDS011;58741;52.672;13.548;2024-03-02T07:33:00;21.23;;;9.98;;
71083;SDS011;58741;52.672;13.548;2024-03-02T07:35:27;16.85;;;9.15;;
71083;SDS011;58741;52.672;13.548;2024-03-02T07:37:54;18.35;;;9.25;;
71083;SDS011;58741;52.672;13.548;2024-03-02T07:40:23;23.02;;;11.13;;
71083;SDS011;58741;52.672;13.548;2024-03-02T07:42:50;19.95;;;10.63;;
71083;SDS011;58741;52.672;13.548;2024-03-02T07:45:17;22.25;;;11.00;;
71083;SDS011;58741;52.672;13.548;2024-03-02T07:47:43;21.38;;;10.35;;
71083;SDS011;58741;52.672;13.548;2024-03-02T07:50:10;24.63;;;9.77;;
71083;SDS011;58741;52.672;13.548;2024-03-02T07:52:37;22.80;;;10.43;;
71083;SDS011;58741;52.672;13.548;2024-03-02T07:55:04;18.17;;;9.85;;
71083;SDS011;58741;52.672;13.548;2024-03-02T07:57:31;15.57;;;9.98;;
71083;SDS011;58741;52.672;13.548;2024-03-02T07:59:58;21.67;;;11.55;;
71083;SDS011;58741;52.672;13.548;2024-03-02T08:02:25;18.33;;;10.77;;
71083;SDS011;58741;52.672;13.548;2024-03-02T08:04:52;20.60;;;10.02;;
71083;SDS011;58741;52.672;13.548;2024-03-02T08:07:19;18.38;;;9.95;;
71083;SDS011;58741;52.672;13.548;2024-03-02T08:09:46;23.20;;;12.13;;
71083;SDS011;58741;52.672;13.548;2024-03-02T08:12:13;20.55;;;10.73;;
71083;SDS011;58741;52.672;13.548;2024-03-02T08:14:39;20.65;;;10.85;;
71083;SDS011;58741;52.672;13.548;2024-03-02T08:17:06;23.08;;;10.45;;
71083;SDS011;58741;52.672;13.548;2024-03-02T08:19:36;16.98;;;9.13;;
71083;SDS011;58741;52.672;13.548;2024-03-02T08:22:03;17.08;;;8.95;;
71083;SDS011;58741;52.672;13.548;2024-03-02T08:24:30;19.67;;;10.43;;
71083;SDS011;58741;52.672;13.548;2024-03-02T08:26:58;29.13;;;12.93;;
71083;SDS011;58741;52.672;13.548;2024-03-02T08:29:26;27.08;;;13.68;;
71083;SDS011;58741;52.672;13.548;2024-03-02T08:31:53;31.83;;;13.27;;
71083;SDS011;58741;52.672;13.548;2024-03-02T08:34:20;25.13;;;13.00;;
71083;SDS011;58741;52.672;13.548;2024-03-02T08:36:47;23.92;;;11.50;;
71083;SDS011;58741;52.672;13.548;2024-03-02T08:39:14;23.30;;;11.23;;
71083;SDS011;58741;52.672;13.548;2024-03-02T08:41:42;27.40;;;12.82;;
71083;SDS011;58741;52.672;13.548;2024-03-02T08:44:10;23.70;;;12.77;;
71083;SDS011;58741;52.672;13.548;2024-03-02T08:46:38;28.48;;;13.13;;
71083;SDS011;58741;52.672;13.548;2024-03-02T08:49:06;23.85;;;13.48;;
71083;SDS011;58741;52.672;13.548;2024-03-02T08:51:33;28.38;;;13.48;;
71083;SDS011;58741;52.672;13.548;2024-03-02T08:54:00;21.30;;;11.10;;
71083;SDS011;58741;52.672;13.548;2024-03-02T08:56:27;21.67;;;11.63;;
71083;SDS011;58741;52.672;13.548;2024-03-02T08:58:53;19.35;;;11.02;;
71083;SDS011;58741;52.672;13.548;2024-03-02T09:01:20;21.45;;;10.90;;
71083;SDS011;58741;52.672;13.548;2024-03-02T09:03:47;22.10;;;10.13;;
71083;SDS011;58741;52.672;13.548;2024-03-02T09:06:15;22.70;;;11.68;;
71083;SDS011;58741;52.672;13.548;2024-03-02T09:08:47;25.65;;;12.30;;
71083;SDS011;58741;52.672;13.548;2024-03-02T09:11:15;27.52;;;11.73;;
71083;SDS011;58741;52.672;13.548;2024-03-02T09:13:42;30.13;;;13.38;;
71083;SDS011;58741;52.672;13.548;2024-03-02T09:16:09;22.35;;;11.40;;
71083;SDS011;58741;52.672;13.548;2024-03-02T09:18:37;23.95;;;12.38;;
71083;SDS011;58741;52.672;13.548;2024-03-02T09:21:04;32.05;;;14.45;;
71083;SDS011;58741;52.672;13.548;2024-03-02T09:23:31;26.65;;;12.07;;
71083;SDS011;58741;52.672;13.548;2024-03-02T09:25:58;25.38;;;11.98;;
71083;SDS011;58741;52.672;13.548;2024-03-02T09:28:25;24.75;;;13.55;;
71083;SDS011;58741;52.672;13.548;2024-03-02T09:30:52;29.50;;;12.63;;
71083;SDS011;58741;52.672;13.548;2024-03-02T09:33:22;22.48;;;11.43;;
71083;SDS011;58741;52.672;13.548;2024-03-02T09:35:49;20.02;;;10.35;;
71083;SDS011;58741;52.672;13.548;2024-03-02T09:38:17;22.90;;;11.85;;
71083;SDS011;58741;52.672;13.548;2024-03-02T09:40:44;21.30;;;9.52;;
71083;SDS011;58741;52.672;13.548;2024-03-02T09:43:11;18.52;;;9.38;;
71083;SDS011;58741;52.672;13.548;2024-03-02T09:45:39;17.15;;;8.27;;
71083;SDS011;58741;52.672;13.548;2024-03-02T09:48:07;23.23;;;11.05;;
71083;SDS011;58741;52.672;13.548;2024-03-02T09:50:34;23.52;;;10.57;;
71083;SDS011;58741;52.672;13.548;2024-03-02T09:53:01;20.38;;;10.38;;
71083;SDS011;58741;52.672;13.548;2024-03-02T09:55:28;20.02;;;10.48;;
71083;SDS011;58741;52.672;13.548;2024-03-02T09:57:55;29.20;;;13.90;;
71083;SDS011;58741;52.672;13.548;2024-03-02T10:00:23;28.40;;;12.40;;
71083;SDS011;58741;52.672;13.548;2024-03-02T10:02:51;22.77;;;11.68;;
71083;SDS011;58741;52.672;13.548;2024-03-02T10:05:24;23.08;;;12.68;;
71083;SDS011;58741;52.672;13.548;2024-03-02T10:08:02;24.27;;;12.38;;
71083;SDS011;58741;52.672;13.548;2024-03-02T10:10:36;27.25;;;10.55;;
71083;SDS011;58741;52.672;13.548;2024-03-02T10:13:10;22.50;;;11.30;;
71083;SDS011;58741;52.672;13.548;2024-03-02T10:15:39;17.15;;;9.50;;
71083;SDS011;58741;52.672;13.548;2024-03-02T10:18:09;21.35;;;10.98;;
71083;SDS011;58741;52.672;13.548;2024-03-02T10:20:42;20.35;;;9.60;;
71083;SDS011;58741;52.672;13.548;2024-03-02T10:23:17;16.95;;;9.55;;
71083;SDS011;58741;52.672;13.548;2024-03-02T10:25:44;23.10;;;11.68;;
71083;SDS011;58741;52.672;13.548;2024-03-02T10:28:23;14.35;;;9.18;;
71083;SDS011;58741;52.672;13.548;2024-03-02T10:30:50;17.88;;;8.85;;
71083;SDS011;58741;52.672;13.548;2024-03-02T10:33:19;15.25;;;7.38;;
71083;SDS011;58741;52.672;13.548;2024-03-02T10:35:46;19.70;;;9.65;;
71083;SDS011;58741;52.672;13.548;2024-03-02T10:38:15;13.60;;;7.18;;
71083;SDS011;58741;52.672;13.548;2024-03-02T10:40:46;19.83;;;7.97;;
71083;SDS011;58741;52.672;13.548;2024-03-02T10:43:13;18.05;;;8.43;;
71083;SDS011;58741;52.672;13.548;2024-03-02T10:45:42;15.40;;;7.60;;
71083;SDS011;58741;52.672;13.548;2024-03-02T10:48:09;12.60;;;6.30;;
71083;SDS011;58741;52.672;13.548;2024-03-02T10:50:36;12.48;;;6.05;;
71083;SDS011;58741;52.672;13.548;2024-03-02T10:53:03;14.18;;;6.68;;
71083;SDS011;58741;52.672;13.548;2024-03-02T10:55:32;13.98;;;7.28;;
71083;SDS011;58741;52.672;13.548;2024-03-02T10:57:59;13.43;;;7.28;;
71083;SDS011;58741;52.672;13.548;2024-03-02T11:00:33;21.20;;;9.35;;
71083;SDS011;58741;52.672;13.548;2024-03-02T11:05:38;12.70;;;6.90;;
71083;SDS011;58741;52.672;13.548;2024-03-02T11:08:07;16.70;;;7.22;;
71083;SDS011;58741;52.672;13.548;2024-03-02T11:10:38;9.73;;;6.05;;
71083;SDS011;58741;52.672;13.548;2024-03-02T11:13:13;16.08;;;6.70;;
71083;SDS011;58741;52.672;13.548;2024-03-02T11:15:42;13.77;;;6.50;;
71083;SDS011;58741;52.672;13.548;2024-03-02T11:18:10;11.68;;;6.43;;
71083;SDS011;58741;52.672;13.548;2024-03-02T11:20:39;11.32;;;6.38;;
71083;SDS011;58741;52.672;13.548;2024-03-02T11:23:10;12.65;;;6.20;;
71083;SDS011;58741;52.672;13.548;2024-03-02T11:25:37;12.18;;;5.18;;
71083;SDS011;58741;52.672;13.548;2024-03-02T11:28:06;11.93;;;5.63;;
71083;SDS011;58741;52.672;13.548;2024-03-02T11:33:07;12.57;;;5.53;;
71083;SDS011;58741;52.672;13.548;2024-03-02T11:38:03;10.30;;;5.65;;
71083;SDS011;58741;52.672;13.548;2024-03-02T11:40:32;10.38;;;6.32;;
71083;SDS011;58741;52.672;13.548;2024-03-02T11:42:59;12.00;;;6.85;;
71083;SDS011;58741;52.672;13.548;2024-03-02T11:45:27;15.75;;;7.97;;
71083;SDS011;58741;52.672;13.548;2024-03-02T11:47:54;13.10;;;6.72;;
71083;SDS011;58741;52.672;13.548;2024-03-02T11:50:46;11.38;;;6.05;;
71083;SDS011;58741;52.672;13.548;2024-03-02T11:53:13;15.40;;;6.90;;
71083;SDS011;58741;52.672;13.548;2024-03-02T11:55:41;14.32;;;8.15;;
71083;SDS011;58741;52.672;13.548;2024-03-02T11:58:12;12.38;;;7.03;;
71083;SDS011;58741;52.672;13.548;2024-03-02T12:00:39;10.95;;;6.55;;
71083;SDS011;58741;52.672;13.548;2024-03-02T12:03:07;12.60;;;6.05;;
71083;SDS011;58741;52.672;13.548;2024-03-02T12:05:38;11.68;;;5.75;;
71083;SDS011;58741;52.672;13.548;2024-03-02T12:08:06;10.05;;;5.07;;
71083;SDS011;58741;52.672;13.548;2024-03-02T12:10:34;13.55;;;5.18;;
71083;SDS011;58741;52.672;13.548;2024-03-02T12:13:03;7.93;;;4.13;;
71083;SDS011;58741;52.672;13.548;2024-03-02T12:15:33;12.13;;;4.55;;
71083;SDS011;58741;52.672;13.548;2024-03-02T12:18:01;7.18;;;4.38;;
71083;SDS011;58741;52.672;13.548;2024-03-02T12:20:29;8.90;;;4.55;;
71083;SDS011;58741;52.672;13.548;2024-03-02T12:22:58;8.55;;;4.07;;
71083;SDS011;58741;52.672;13.548;2024-03-02T12:25:25;5.80;;;3.55;;
71083;SDS011;58741;52.672;13.548;2024-03-02T12:27:54;8.50;;;4.55;;
71083;SDS011;58741;52.672;13.548;2024-03-02T12:30:22;7.25;;;4.60;;
71083;SDS011;58741;52.672;13.548;2024-03-02T12:32:49;10.38;;;4.82;;
71083;SDS011;58741;52.672;13.548;2024-03-02T12:35:17;8.55;;;5.15;;
71083;SDS011;58741;52.672;13.548;2024-03-02T12:37:45;14.27;;;6.50;;
71083;SDS011;58741;52.672;13.548;2024-03-02T12:40:13;13.00;;;7.07;;
71083;SDS011;58741;52.672;13.548;2024-03-02T12:42:40;14.77;;;6.43;;
71083;SDS011;58741;52.672;13.548;2024-03-02T12:45:11;10.27;;;5.60;;
71083;SDS011;58741;52.672;13.548;2024-03-02T12:47:41;8.60;;;5.00;;
71083;SDS011;58741;52.672;13.548;2024-03-02T12:50:09;7.80;;;4.13;;
71083;SDS011;58741;52.672;13.548;2024-03-02T12:52:36;10.50;;;5.22;;
71083;SDS011;58741;52.672;13.548;2024-03-02T12:55:06;11.55;;;4.97;;
71083;SDS011;58741;52.672;13.548;2024-03-02T12:57:33;8.02;;;4.72;;
71083;SDS011;58741;52.672;13.548;2024-03-02T13:00:02;7.72;;;4.65;;
71083;SDS011;58741;52.672;13.548;2024-03-02T13:02:36;14.93;;;5.38;;
71083;SDS011;58741;52.672;13.548;2024-03-02T13:05:06;6.32;;;3.88;;
71083;SDS011;58741;52.672;13.548;2024-03-02T13:07:37;6.00;;;3.88;;
71083;SDS011;58741;52.672;13.548;2024-03-02T13:10:05;7.25;;;4.25;;
71083;SDS011;58741;52.672;13.548;2024-03-02T13:12:35;8.55;;;4.22;;
71083;SDS011;58741;52.672;13.548;2024-03-02T13:15:03;11.30;;;5.13;;
71083;SDS011;58741;52.672;13.548;2024-03-02T13:17:33;12.00;;;5.75;;
71083;SDS011;58741;52.672;13.548;2024-03-02T13:20:04;10.88;;;4.90;;
71083;SDS011;58741;52.672;13.548;2024-03-02T13:22:36;9.90;;;5.47;;
71083;SDS011;58741;52.672;13.548;2024-03-02T13:25:03;6.22;;;3.60;;
71083;SDS011;58741;52.672;13.548;2024-03-02T13:27:33;8.98;;;4.60;;
71083;SDS011;58741;52.672;13.548;2024-03-02T13:30:04;8.23;;;4.68;;
71083;SDS011;58741;52.672;13.548;2024-03-02T13:32:35;14.10;;;5.13;;
71083;SDS011;58741;52.672;13.548;2024-03-02T13:35:02;9.80;;;5.25;;
71083;SDS011;58741;52.672;13.548;2024-03-02T13:37:29;10.43;;;5.63;;
71083;SDS011;58741;52.672;13.548;2024-03-02T13:39:56;7.53;;;4.63;;
71083;SDS011;58741;52.672;13.548;2024-03-02T13:42:23;9.98;;;4.68;;
71083;SDS011;58741;52.672;13.548;2024-03-02T13:44:50;9.80;;;3.80;;
71083;SDS011;58741;52.672;13.548;2024-03-02T13:47:18;9.15;;;4.47;;
71083;SDS011;58741;52.672;13.548;2024-03-02T13:49:45;7.75;;;4.13;;
71083;SDS011;58741;52.672;13.548;2024-03-02T13:52:13;7.35;;;3.70;;
71083;SDS011;58741;52.672;13.548;2024-03-02T13:54:41;7.72;;;4.22;;
71083;SDS011;58741;52.672;13.548;2024-03-02T13:57:10;8.52;;;3.90;;
71083;SDS011;58741;52.672;13.548;2024-03-02T13:59:38;8.30;;;4.20;;
71083;SDS011;58741;52.672;13.548;2024-03-02T14:02:05;7.03;;;4.13;;
71083;SDS011;58741;52.672;13.548;2024-03-02T14:04:33;10.98;;;3.80;;
71083;SDS011;58741;52.672;13.548;2024-03-02T14:07:00;8.07;;;3.60;;
71083;SDS011;58741;52.672;13.548;2024-03-02T14:09:28;6.90;;;3.50;;
71083;SDS011;58741;52.672;13.548;2024-03-02T14:11:56;7.22;;;3.70;;
71083;SDS011;58741;52.672;13.548;2024-03-02T14:14:23;5.18;;;3.50;;
71083;SDS011;58741;52.672;13.548;2024-03-02T14:16:50;6.65;;;3.08;;
71083;SDS011;58741;52.672;13.548;2024-03-02T14:19:17;7.43;;;3.75;;
71083;SDS011;58741;52.672;13.548;2024-03-02T14:21:44;6.22;;;3.40;;
71083;SDS011;58741;52.672;13.548;2024-03-02T14:24:11;7.32;;;3.67;;
71083;SDS011;58741;52.672;13.548;2024-03-02T14:26:39;5.65;;;3.33;;
71083;SDS011;58741;52.672;13.548;2024-03-02T14:29:06;6.25;;;3.92;;
71083;SDS011;58741;52.672;13.548;2024-03-02T14:31:33;7.35;;;3.72;;
71083;SDS011;58741;52.672;13.548;2024-03-02T14:34:00;5.30;;;3.22;;
71083;SDS011;58741;52.672;13.548;2024-03-02T14:36:27;5.30;;;3.42;;
71083;SDS011;58741;52.672;13.548;2024-03-02T14:38:55;5.82;;;2.97;;
71083;SDS011;58741;52.672;13.548;2024-03-02T14:41:22;4.63;;;3.15;;